This is the latest recevied weather packets stored in our database for station/object JH5EWP-13. If no packets are shown the sender has not sent any weather packets the latest 10 day(s).
| Time | Temp. | Humidity | Pressure | Rain* | Wind** | Luminosity | Snow |
|---|---|---|---|---|---|---|---|
| 1777876725 | 19.44° C | 45% | 1003 hPa | 0 mm | - | - | - |
| 1777875825 | 20° C | 43% | 1002.5 hPa | 0 mm | - | - | - |
| 1777874925 | 19.44° C | 42% | 1002.6 hPa | 0 mm | - | - | - |
| 1777874025 | 19.44° C | 43% | 1002.5 hPa | 0 mm | - | - | - |
| 1777873125 | 20° C | 43% | 1002.6 hPa | 0 mm | - | - | - |
| 1777872225 | 18.89° C | 46% | 1002.4 hPa | 0 mm | - | - | - |
| 1777871325 | 18.89° C | 45% | 1002.5 hPa | 0 mm | - | - | - |
| 1777870425 | 18.89° C | 44% | 1002.4 hPa | 0 mm | - | - | - |
| 1777869525 | 18.89° C | 45% | 1002.6 hPa | 0 mm | - | - | - |
| 1777868625 | 18.89° C | 44% | 1002.5 hPa | 0 mm | - | - | - |
| 1777867725 | 18.89° C | 45% | 1002.2 hPa | 0 mm | - | - | - |
| 1777866825 | 18.33° C | 46% | 1002.2 hPa | 0 mm | - | - | - |
| 1777865925 | 18.33° C | 47% | 1002.2 hPa | 0.51 mm | - | - | - |
| 1777865025 | 18.89° C | 44% | 1002 hPa | 0.51 mm | - | - | - |
| 1777864125 | 18.33° C | 47% | 1001.9 hPa | 0.51 mm | - | - | - |
| 1777863225 | 18.33° C | 48% | 1001.8 hPa | 0.51 mm | - | - | - |
| 1777862325 | 18.89° C | 47% | 1002.1 hPa | 0 mm | - | - | - |
| 1777861425 | 18.33° C | 48% | 1002 hPa | 0 mm | - | - | - |
| 1777860525 | 18.33° C | 49% | 1002 hPa | 0 mm | - | - | - |
| 1777859625 | 17.78° C | 48% | 1002.3 hPa | 0 mm | - | - | - |
| 1777858725 | 18.33° C | 47% | 1001.9 hPa | 0 mm | - | - | - |
| 1777857825 | 18.33° C | 46% | 1001.7 hPa | 0 mm | - | - | - |
| 1777856925 | 18.33° C | 44% | 1001.8 hPa | 0 mm | - | - | - |
| 1777856025 | 17.78° C | 47% | 1001.9 hPa | 1.27 mm | - | - | - |
| 1777855125 | 17.78° C | 50% | 1001.3 hPa | 1.27 mm | - | - | - |
* Rain latest hour (hover to see other rain measurements)
** Current wind speed in m/s (hover to see current wind gust speed)